Time;durP1;ratioP1;P1;durP2;ratioP2;P2;SDS_P1;SDS_P2;PMS_P1;PMS_P2;Temp;Humidity;BMP_temperature;BMP_pressure;BME280_temperature;BME280_humidity;BME280_pressure;Samples;Min_cycle;Max_cycle;Signal;HPM_P1;HPM_P2
2021/11/21 00:45:06;;;;;;;0.95;0.90;;;;;;;2.03;85.84;97654.00;6386164;22;20090;-77
2021/11/21 00:47:33;;;;;;;0.60;0.60;;;;;;;1.98;86.43;97648.28;6393916;22;20088;-77
2021/11/21 00:49:59;;;;;;;0.50;0.50;;;;;;;1.98;86.51;97653.44;6316136;22;20037;-77
2021/11/21 00:52:27;;;;;;;0.50;0.50;;;;;;;2.03;86.37;97661.72;6396363;22;20018;-78
2021/11/21 00:54:57;;;;;;;0.50;0.50;;;;;;;2.07;85.73;97662.38;6396331;22;20101;-78
2021/11/21 00:57:23;;;;;;;0.50;0.50;;;;;;;2.05;86.05;97665.03;6368625;22;20014;-79
2021/11/21 00:59:49;;;;;;;0.60;0.60;;;;;;;2.00;86.67;97671.34;6396424;22;20014;-78
2021/11/21 01:02:16;;;;;;;0.55;0.55;;;;;;;1.89;87.38;97674.53;6396791;22;20038;-77
2021/11/21 01:04:42;;;;;;;0.80;0.80;;;;;;;1.92;87.24;97668.38;6396297;22;20075;-78
2021/11/21 01:07:10;;;;;;;0.50;0.50;;;;;;;1.92;87.14;97669.22;6368610;22;20801;-77
2021/11/21 01:09:36;;;;;;;0.60;0.60;;;;;;;1.96;86.61;97669.88;6396767;22;20028;-77
2021/11/21 01:12:05;;;;;;;0.50;0.50;;;;;;;1.96;86.56;97665.53;6396567;22;20085;-76
2021/11/21 01:14:32;;;;;;;0.50;0.50;;;;;;;1.94;86.48;97672.50;6396596;22;20515;-77
2021/11/21 01:16:58;;;;;;;0.60;0.60;;;;;;;1.89;87.01;97671.94;6368587;22;20024;-77
2021/11/21 01:19:24;;;;;;;0.63;0.63;;;;;;;1.87;87.44;97676.34;6396611;22;20045;-78
2021/11/21 01:21:50;;;;;;;0.40;0.40;;;;;;;1.83;87.97;97663.75;6368365;22;20014;-79
2021/11/21 01:24:16;;;;;;;0.50;0.50;;;;;;;1.80;88.06;97680.16;6396547;22;20014;-78
2021/11/21 01:26:43;;;;;;;0.50;0.50;;;;;;;1.79;88.45;97691.38;6368106;22;20491;-78
2021/11/21 01:29:09;;;;;;;0.63;0.63;;;;;;;1.79;88.70;97703.41;6396009;22;20110;-78
2021/11/21 01:31:36;;;;;;;0.60;0.60;;;;;;;1.64;89.24;97697.31;6396592;22;20056;-77
2021/11/21 01:34:02;;;;;;;0.50;0.50;;;;;;;1.35;91.37;97687.75;6341856;22;20519;-76
2021/11/21 01:36:28;;;;;;;0.50;0.50;;;;;;;1.31;92.00;97687.09;6396335;22;20601;-76
2021/11/21 01:38:54;;;;;;;0.60;0.60;;;;;;;1.31;92.32;97696.56;6368208;22;20028;-76
2021/11/21 01:41:20;;;;;;;0.50;0.50;;;;;;;1.31;92.43;97683.72;6396237;22;20071;-75
2021/11/21 01:43:46;;;;;;;0.50;0.50;;;;;;;1.47;91.35;97692.28;6396181;22;20014;-75
2021/11/21 01:46:12;;;;;;;0.50;0.50;;;;;;;1.54;90.83;97698.72;6367990;22;20105;-76
2021/11/21 01:48:38;;;;;;;0.60;0.60;;;;;;;1.36;91.63;97702.28;6396506;22;20017;-75
2021/11/21 01:51:06;;;;;;;0.50;0.50;;;;;;;1.17;93.18;97706.72;6368423;22;20033;-75
2021/11/21 01:53:32;;;;;;;0.60;0.60;;;;;;;1.09;93.15;97716.56;6368235;22;20017;-76
2021/11/21 01:55:58;;;;;;;0.50;0.50;;;;;;;1.00;94.56;97717.84;6367894;22;20017;-74
2021/11/21 01:58:24;;;;;;;0.60;0.60;;;;;;;0.90;94.97;97707.22;6341742;22;20024;-75
2021/11/21 02:00:51;;;;;;;0.60;0.60;;;;;;;0.84;95.70;97722.13;6367881;22;20070;-74
2021/11/21 02:03:18;;;;;;;0.50;0.50;;;;;;;0.71;95.91;97711.63;6395637;22;20380;-75
2021/11/21 02:05:47;;;;;;;0.50;0.50;;;;;;;0.71;96.12;97716.78;6368394;22;20028;-76
2021/11/21 02:08:13;;;;;;;0.70;0.70;;;;;;;0.65;96.31;97727.34;6395812;22;20030;-80
2021/11/21 02:10:39;;;;;;;0.50;0.50;;;;;;;0.63;96.86;97720.59;6368799;22;20014;-79
2021/11/21 02:13:06;;;;;;;0.47;0.47;;;;;;;0.69;97.23;97733.97;6396399;22;20010;-78
2021/11/21 02:15:33;;;;;;;0.50;0.50;;;;;;;0.77;97.02;97737.00;6368273;22;20041;-79
2021/11/21 02:17:59;;;;;;;0.82;0.82;;;;;;;0.77;97.11;97731.03;6367559;22;20020;-79
2021/11/21 02:20:34;;;;;;;0.50;0.50;;;;;;;0.82;97.01;97737.59;6367931;22;20021;-80
2021/11/21 02:23:01;;;;;;;0.50;0.50;;;;;;;0.84;97.02;97743.50;6395603;22;20590;-77
2021/11/21 02:25:27;;;;;;;0.68;0.68;;;;;;;0.85;97.13;97741.75;6367760;22;20018;-78
2021/11/21 02:27:53;;;;;;;0.45;0.45;;;;;;;0.85;97.09;97741.75;6367552;22;20093;-79
2021/11/21 02:30:19;;;;;;;0.40;0.40;;;;;;;0.92;96.99;97741.34;6395872;22;20024;-78
2021/11/21 02:32:50;;;;;;;0.50;0.50;;;;;;;0.93;96.30;97743.03;6367751;22;20018;-77
2021/11/21 02:35:17;;;;;;;0.50;0.50;;;;;;;0.95;95.97;97728.34;6315815;22;20041;-77
2021/11/21 02:37:43;;;;;;;0.50;0.50;;;;;;;1.03;95.51;97745.97;6395860;22;20028;-75
2021/11/21 02:40:10;;;;;;;0.40;0.40;;;;;;;1.03;95.45;97733.94;6395596;22;20635;-76
2021/11/21 02:42:36;;;;;;;0.50;0.50;;;;;;;1.09;94.98;97745.63;6368213;22;20018;-77
2021/11/21 02:45:04;;;;;;;0.60;0.60;;;;;;;1.10;94.47;97733.63;6395615;22;20025;-76
2021/11/21 02:47:45;;;;;;;0.70;0.70;;;;;;;1.15;93.99;97742.75;6362356;22;20366;-78
2021/11/21 02:50:21;;;;;;;0.68;0.68;;;;;;;1.16;93.84;97739.28;6364062;22;20032;-77
2021/11/21 02:52:48;;;;;;;0.50;0.50;;;;;;;1.27;92.73;97757.56;6336167;22;20022;-77
2021/11/21 02:55:14;;;;;;;0.60;0.60;;;;;;;1.32;92.59;97749.59;6362481;22;20071;-75
2021/11/21 02:57:41;;;;;;;0.50;0.50;;;;;;;1.26;92.70;97739.66;6336790;22;20015;-76
2021/11/21 03:00:09;;;;;;;0.65;0.65;;;;;;;1.27;91.63;97737.00;6367849;22;20014;-76
2021/11/21 03:02:38;;;;;;;0.50;0.50;;;;;;;1.36;90.25;97730.56;6368490;22;20022;-75
2021/11/21 03:05:05;;;;;;;0.50;0.50;;;;;;;1.46;88.86;97736.88;6364570;22;20021;-74
2021/11/21 03:07:34;;;;;;;0.50;0.50;;;;;;;1.41;89.73;97737.09;6336856;22;20018;-76
2021/11/21 03:10:00;;;;;;;0.50;0.50;;;;;;;1.53;89.02;97745.94;6363905;22;20025;-77
2021/11/21 03:12:26;;;;;;;0.50;0.50;;;;;;;1.52;88.78;97731.41;6364229;22;20018;-76
2021/11/21 03:14:52;;;;;;;0.50;0.50;;;;;;;1.52;88.05;97733.97;6364124;22;20508;-76
2021/11/21 03:17:18;;;;;;;0.63;0.63;;;;;;;1.59;87.77;97730.19;6365846;22;20499;-74
2021/11/21 03:19:44;;;;;;;0.40;0.40;;;;;;;1.64;87.21;97732.50;6338196;22;20018;-78
2021/11/21 03:22:11;;;;;;;0.50;0.50;;;;;;;1.62;87.21;97735.16;6363913;22;20671;-76
2021/11/21 03:24:37;;;;;;;0.50;0.50;;;;;;;1.63;87.28;97736.81;6338063;22;20017;-75
2021/11/21 03:27:04;;;;;;;0.50;0.50;;;;;;;1.60;87.67;97738.72;6364348;22;20018;-76
2021/11/21 03:29:30;;;;;;;0.60;0.60;;;;;;;1.56;87.50;97732.91;6364202;22;20022;-77
2021/11/21 03:31:56;;;;;;;0.50;0.50;;;;;;;1.60;86.78;97744.69;6365699;22;20071;-78
2021/11/21 03:34:25;;;;;;;0.50;0.50;;;;;;;1.66;86.57;97746.09;6338940;22;20018;-76
2021/11/21 03:37:07;;;;;;;0.75;0.75;;;;;;;1.56;87.84;97738.88;6363794;22;20469;-77
2021/11/21 03:39:33;;;;;;;0.50;0.50;;;;;;;1.55;87.88;97752.63;6337818;22;20487;-76
2021/11/21 03:41:59;;;;;;;0.50;0.50;;;;;;;1.55;88.69;97751.81;6364079;22;20392;-76
2021/11/21 03:44:26;;;;;;;0.60;0.60;;;;;;;1.49;90.04;97759.84;6365542;22;20014;-76
2021/11/21 03:46:51;;;;;;;0.50;0.50;;;;;;;1.45;90.62;97755.75;6363591;22;20019;-77
2021/11/21 03:49:18;;;;;;;0.50;0.50;;;;;;;1.37;91.54;97756.19;6365443;22;20025;-75
2021/11/21 03:51:44;;;;;;;0.50;0.50;;;;;;;1.24;92.71;97762.03;6337686;22;20024;-74
2021/11/21 03:54:10;;;;;;;0.57;0.57;;;;;;;1.19;93.30;97761.41;6365150;22;20010;-75
2021/11/21 03:56:36;;;;;;;0.50;0.50;;;;;;;1.16;93.71;97753.88;6365585;22;20068;-74
2021/11/21 03:59:02;;;;;;;0.50;0.50;;;;;;;1.12;94.38;97763.47;6363482;22;20015;-75
2021/11/21 04:01:28;;;;;;;0.50;0.50;;;;;;;1.03;94.24;97759.63;6365728;22;20131;-75
2021/11/21 04:03:54;;;;;;;0.47;0.47;;;;;;;1.03;94.31;97764.78;6365226;22;20037;-74
2021/11/21 04:06:20;;;;;;;1.23;1.23;;;;;;;0.98;94.81;97760.78;6363751;22;20361;-76
2021/11/21 04:08:47;;;;;;;0.50;0.50;;;;;;;0.95;95.15;97764.31;6363889;22;20018;-77
2021/11/21 04:11:13;;;;;;;0.50;0.50;;;;;;;1.00;95.49;97766.66;6364262;22;20014;-77
2021/11/21 04:13:39;;;;;;;0.50;0.50;;;;;;;0.96;95.57;97773.69;6363822;22;20097;-75
2021/11/21 04:16:05;;;;;;;2.80;1.63;;;;;;;0.95;95.56;97766.88;6365061;22;20476;-75
2021/11/21 04:18:33;;;;;;;0.50;0.50;;;;;;;0.97;95.52;97772.78;6365266;22;20014;-76
2021/11/21 04:20:59;;;;;;;0.60;0.60;;;;;;;1.04;96.00;97774.16;6364954;22;20018;-77
2021/11/21 04:23:29;;;;;;;0.50;0.50;;;;;;;1.15;94.38;97765.03;6365367;22;20457;-77
2021/11/21 04:25:56;;;;;;;0.63;0.63;;;;;;;1.36;91.30;97762.22;6363543;22;20049;-78
2021/11/21 04:28:22;;;;;;;0.50;0.50;;;;;;;1.43;90.87;97757.59;6337029;22;20025;-78
2021/11/21 04:30:49;;;;;;;0.70;0.70;;;;;;;1.46;89.76;97755.69;6365285;22;20449;-77
2021/11/21 04:33:15;;;;;;;0.40;0.40;;;;;;;1.54;89.28;97766.41;6365419;22;20101;-77
2021/11/21 04:35:41;;;;;;;0.57;0.57;;;;;;;1.60;88.74;97761.88;6363550;22;20106;-79
2021/11/21 04:38:07;;;;;;;0.50;0.50;;;;;;;1.59;87.66;97758.44;6365016;22;20038;-77
2021/11/21 04:40:33;;;;;;;0.60;0.60;;;;;;;1.67;87.47;97778.63;6363657;22;20046;-76
2021/11/21 04:42:59;;;;;;;0.55;0.55;;;;;;;1.66;87.41;97775.22;6364818;22;20015;-76
2021/11/21 04:45:25;;;;;;;0.70;0.70;;;;;;;1.63;87.58;97759.13;6365847;22;20018;-77
2021/11/21 04:47:51;;;;;;;0.55;0.55;;;;;;;1.59;88.10;97768.75;6342310;22;20014;-79
2021/11/21 04:50:18;;;;;;;0.50;0.50;;;;;;;1.68;86.59;97752.00;6368726;22;20057;-78
2021/11/21 04:52:44;;;;;;;0.52;0.52;;;;;;;1.60;87.44;97767.00;6397175;22;20517;-76
2021/11/21 04:55:10;;;;;;;0.50;0.50;;;;;;;1.57;87.63;97765.44;6396701;22;20049;-76
2021/11/21 04:57:40;;;;;;;0.55;0.55;;;;;;;1.51;88.59;97781.16;6368958;22;20017;-75
2021/11/21 05:00:08;;;;;;;0.45;0.45;;;;;;;1.50;88.24;97771.78;6368592;22;20018;-76
2021/11/21 05:02:39;;;;;;;0.50;0.50;;;;;;;1.56;87.63;97786.91;6395734;22;20491;-78
2021/11/21 05:05:06;;;;;;;0.50;0.50;;;;;;;1.61;86.93;97787.47;6395315;22;20014;-77
2021/11/21 05:07:32;;;;;;;1.02;1.02;;;;;;;1.53;88.00;97799.91;6395787;22;20568;-77
2021/11/21 05:09:58;;;;;;;0.50;0.50;;;;;;;1.56;87.60;97794.59;6368885;22;20018;-77
2021/11/21 05:12:24;;;;;;;0.50;0.50;;;;;;;1.55;87.83;97803.22;6369922;22;20025;-78
2021/11/21 05:14:54;;;;;;;0.50;0.50;;;;;;;1.49;88.60;97804.38;6369298;22;20101;-77
2021/11/21 05:17:24;;;;;;;0.60;0.60;;;;;;;1.47;89.09;97800.22;6406308;22;20459;-76
2021/11/21 05:19:50;;;;;;;0.60;0.60;;;;;;;1.49;88.56;97803.53;6407510;22;20018;-81
2021/11/21 05:22:16;;;;;;;0.80;0.80;;;;;;;1.45;88.24;97792.59;6408812;22;20014;-77
2021/11/21 05:24:42;;;;;;;0.70;0.70;;;;;;;1.49;87.95;97794.09;6380068;22;20060;-77
2021/11/21 05:27:08;;;;;;;0.40;0.40;;;;;;;1.57;87.01;97801.41;6396645;22;20403;-77
2021/11/21 05:29:34;;;;;;;0.70;0.70;;;;;;;1.67;86.27;97791.50;6367696;22;20021;-77
2021/11/21 05:32:02;;;;;;;0.50;0.50;;;;;;;1.72;85.55;97798.03;6395393;22;20014;-78
2021/11/21 05:34:28;;;;;;;0.60;0.60;;;;;;;1.64;86.35;97797.59;6368781;22;20469;-79
2021/11/21 05:36:55;;;;;;;0.50;0.50;;;;;;;1.66;85.88;97811.22;6342165;22;20052;-78
2021/11/21 05:39:21;;;;;;;0.63;0.63;;;;;;;1.61;87.28;97800.31;6368339;22;20147;-80
2021/11/21 05:41:47;;;;;;;0.50;0.50;;;;;;;1.69;86.04;97816.19;6397025;22;20014;-79
2021/11/21 05:44:14;;;;;;;0.50;0.50;;;;;;;1.71;85.95;97803.25;6395860;22;20022;-77
2021/11/21 05:46:42;;;;;;;0.60;0.60;;;;;;;1.74;85.34;97808.22;6342239;22;20017;-79
2021/11/21 05:49:08;;;;;;;0.50;0.50;;;;;;;1.86;83.93;97807.59;6315539;22;20030;-82
2021/11/21 05:51:35;;;;;;;0.63;0.63;;;;;;;1.84;84.25;97806.84;6396579;22;20101;-77
2021/11/21 05:54:02;;;;;;;0.82;0.82;;;;;;;1.86;84.56;97812.75;6315720;22;20498;-79
2021/11/21 05:56:28;;;;;;;0.50;0.50;;;;;;;1.84;84.92;97810.25;6342028;22;20097;-76
2021/11/21 05:58:54;;;;;;;0.60;0.60;;;;;;;1.81;84.71;97810.41;6395542;22;20017;-78
2021/11/21 06:01:21;;;;;;;0.50;0.50;;;;;;;1.85;84.43;97816.22;6395243;22;20014;-77
2021/11/21 06:03:51;;;;;;;0.50;0.50;;;;;;;1.82;84.45;97806.94;6395243;22;20064;-77
2021/11/21 06:06:23;;;;;;;1.90;1.08;;;;;;;1.81;84.69;97810.41;6341222;22;20442;-74
2021/11/21 06:08:49;;;;;;;0.60;0.60;;;;;;;1.81;84.85;97815.56;6394916;22;20071;-74
2021/11/21 06:11:15;;;;;;;1.08;1.08;;;;;;;1.88;84.06;97813.50;6394750;22;20013;-75
2021/11/21 06:13:41;;;;;;;0.60;0.60;;;;;;;1.89;84.38;97802.28;6393910;22;20777;-75
2021/11/21 06:16:07;;;;;;;0.60;0.60;;;;;;;1.88;84.11;97811.75;6366010;22;20447;-79
2021/11/21 06:18:33;;;;;;;0.70;0.70;;;;;;;1.91;84.28;97815.91;6339878;22;20022;-77
2021/11/21 06:20:59;;;;;;;0.50;0.50;;;;;;;1.90;84.09;97825.34;6313971;22;20063;-77
2021/11/21 06:23:26;;;;;;;0.50;0.50;;;;;;;1.92;84.14;97802.97;6394457;22;20013;-77
2021/11/21 06:25:52;;;;;;;0.50;0.50;;;;;;;1.98;83.20;97809.53;6366915;22;20522;-78
2021/11/21 06:28:19;;;;;;;0.60;0.60;;;;;;;2.01;82.54;97812.75;6367744;22;20927;-77
2021/11/21 06:30:55;;;;;;;0.80;0.80;;;;;;;2.01;83.16;97811.94;6395058;22;20017;-76
2021/11/21 06:33:29;;;;;;;0.70;0.70;;;;;;;2.00;82.72;97818.81;6324168;22;20020;-74
2021/11/21 06:35:56;;;;;;;0.50;0.50;;;;;;;2.04;82.95;97827.19;6395260;22;20014;-73
2021/11/21 06:38:22;;;;;;;0.60;0.60;;;;;;;2.07;82.48;97822.72;6389540;22;20018;-76
2021/11/21 06:40:48;;;;;;;0.40;0.40;;;;;;;2.07;82.25;97833.00;6365289;22;20082;-77
2021/11/21 06:43:14;;;;;;;0.60;0.60;;;;;;;2.09;81.98;97826.03;6393291;22;20053;-75
2021/11/21 06:45:40;;;;;;;0.43;0.43;;;;;;;2.12;81.26;97825.06;6365284;22;20029;-76
2021/11/21 06:48:11;;;;;;;0.75;0.75;;;;;;;2.14;81.60;97827.53;6364928;22;20018;-76
2021/11/21 06:50:37;;;;;;;0.60;0.60;;;;;;;2.14;80.77;97832.69;6393591;22;20017;-75
2021/11/21 06:53:04;;;;;;;0.40;0.40;;;;;;;2.16;80.63;97841.97;6340020;22;20041;-75
2021/11/21 06:55:32;;;;;;;0.80;0.80;;;;;;;2.14;80.82;97836.09;6366451;22;20017;-76
2021/11/21 06:57:58;;;;;;;0.70;0.70;;;;;;;2.20;81.05;97842.63;6343035;22;20108;-75
2021/11/21 07:00:24;;;;;;;0.88;0.88;;;;;;;2.17;81.10;97832.50;6396984;22;20022;-77
2021/11/21 07:02:50;;;;;;;0.75;0.75;;;;;;;2.22;80.87;97851.13;6365501;22;20070;-77
2021/11/21 07:05:16;;;;;;;0.60;0.60;;;;;;;2.25;81.46;97845.81;6393453;22;20017;-76
2021/11/21 07:07:43;;;;;;;0.70;0.70;;;;;;;2.23;81.87;97850.19;6367584;22;20067;-75
2021/11/21 07:10:12;;;;;;;0.50;0.50;;;;;;;2.23;81.47;97843.31;6368574;22;20022;-76
2021/11/21 07:12:38;;;;;;;0.50;0.50;;;;;;;2.28;80.99;97832.78;6340418;22;20021;-75
2021/11/21 07:15:04;;;;;;;0.70;0.70;;;;;;;2.29;80.93;97824.16;6393177;22;20018;-76
2021/11/21 07:17:31;;;;;;;0.50;0.50;;;;;;;2.28;80.54;97840.50;6339265;22;20506;-75
2021/11/21 07:19:57;;;;;;;0.50;0.50;;;;;;;2.29;80.14;97840.41;6391452;22;20051;-77
2021/11/21 07:22:23;;;;;;;0.60;0.60;;;;;;;2.28;80.77;97850.78;6391662;22;20018;-78
2021/11/21 07:24:49;;;;;;;0.50;0.50;;;;;;;2.31;80.74;97848.06;6392387;22;20469;-76
2021/11/21 07:27:15;;;;;;;0.60;0.60;;;;;;;2.35;80.76;97852.13;6392888;22;20020;-77
2021/11/21 07:29:41;;;;;;;1.15;1.15;;;;;;;2.33;81.05;97843.63;6393086;22;20346;-77
2021/11/21 07:32:07;;;;;;;0.50;0.50;;;;;;;2.32;80.47;97849.72;6364418;22;20018;-78
2021/11/21 07:34:33;;;;;;;0.70;0.70;;;;;;;2.27;79.97;97859.41;6365048;22;20079;-79
2021/11/21 07:36:59;;;;;;;0.50;0.50;;;;;;;2.30;81.39;97846.38;6364972;22;20025;-78
2021/11/21 07:39:25;;;;;;;0.93;0.93;;;;;;;2.32;80.80;97858.28;6392982;22;20013;-78
2021/11/21 07:41:52;;;;;;;0.80;0.80;;;;;;;2.29;80.56;97842.97;6392971;22;20025;-78
2021/11/21 07:44:18;;;;;;;0.50;0.50;;;;;;;2.33;80.16;97869.38;6338764;22;20061;-77
2021/11/21 07:46:44;;;;;;;0.50;0.50;;;;;;;2.33;79.59;97865.06;6393115;22;20017;-78
2021/11/21 07:49:10;;;;;;;0.60;0.60;;;;;;;2.35;79.92;97865.00;6364091;22;20457;-77
2021/11/21 07:51:36;;;;;;;0.75;0.75;;;;;;;2.36;79.27;97858.91;6338843;22;20018;-77
2021/11/21 07:54:03;;;;;;;0.50;0.50;;;;;;;2.36;79.54;97854.59;6337978;22;20013;-76
2021/11/21 07:56:29;;;;;;;0.55;0.55;;;;;;;2.39;78.94;97854.44;6392713;22;20089;-77
2021/11/21 07:58:55;;;;;;;0.82;0.80;;;;;;;2.43;79.55;97853.38;6392831;22;20091;-81
2021/11/21 08:01:22;;;;;;;0.60;0.60;;;;;;;2.50;78.04;97866.72;6366519;22;20062;-78
2021/11/21 08:03:48;;;;;;;0.70;0.70;;;;;;;2.49;78.49;97873.63;6395065;22;20087;-77
2021/11/21 08:06:14;;;;;;;0.60;0.60;;;;;;;2.45;78.72;97861.84;6366620;22;20021;-78
2021/11/21 08:08:40;;;;;;;0.60;0.60;;;;;;;2.52;76.85;97870.88;6395338;22;20018;-78
2021/11/21 08:11:06;;;;;;;0.50;0.50;;;;;;;2.55;77.63;97869.91;6395558;22;20594;-78
2021/11/21 08:13:32;;;;;;;0.60;0.60;;;;;;;2.59;77.79;97873.94;6396687;22;20104;-78
2021/11/21 08:15:58;;;;;;;0.50;0.50;;;;;;;2.55;77.30;97870.72;6395993;22;20600;-78
2021/11/21 08:18:24;;;;;;;0.60;0.60;;;;;;;2.58;76.29;97870.56;6314950;22;20461;-76
2021/11/21 08:20:53;;;;;;;0.60;0.60;;;;;;;2.61;76.70;97869.56;6368021;22;20039;-77
2021/11/21 08:23:19;;;;;;;0.60;0.60;;;;;;;2.63;76.37;97862.56;6395463;22;20014;-78
2021/11/21 08:25:45;;;;;;;0.75;0.75;;;;;;;2.66;75.44;97864.97;6395789;22;20369;-77
2021/11/21 08:28:11;;;;;;;0.60;0.60;;;;;;;2.68;76.70;97870.06;6395006;22;20014;-78
2021/11/21 08:30:38;;;;;;;0.80;0.57;;;;;;;2.66;75.88;97875.28;6366889;22;20536;-76
2021/11/21 08:33:08;;;;;;;0.50;0.50;;;;;;;2.71;75.73;97868.16;6394951;22;20021;-77
2021/11/21 08:35:35;;;;;;;0.80;0.80;;;;;;;2.65;74.97;97854.78;6340368;22;20017;-78
2021/11/21 08:38:01;;;;;;;0.65;0.65;;;;;;;2.72;75.17;97856.91;6367926;22;20018;-76
2021/11/21 08:40:29;;;;;;;0.60;0.60;;;;;;;2.74;75.18;97880.84;6393417;22;20502;-76
2021/11/21 08:42:58;;;;;;;0.77;0.77;;;;;;;2.80;73.04;97864.22;6395829;22;20010;-76
2021/11/21 08:45:26;;;;;;;0.80;0.80;;;;;;;2.85;73.62;97872.50;6367815;22;20115;-75
2021/11/21 08:47:52;;;;;;;0.57;0.57;;;;;;;2.86;74.35;97880.16;6341920;22;20465;-77
2021/11/21 08:50:19;;;;;;;0.88;0.88;;;;;;;2.90;74.05;97866.22;6340127;22;20082;-78
2021/11/21 08:52:44;;;;;;;0.60;0.60;;;;;;;2.86;73.93;97875.00;6397123;22;20014;-77
2021/11/21 08:55:11;;;;;;;0.65;0.65;;;;;;;2.85;73.22;97869.94;6341388;22;20024;-79
2021/11/21 08:57:37;;;;;;;1.00;1.00;;;;;;;2.98;72.79;97886.38;6397668;22;20070;-78
2021/11/21 09:00:06;;;;;;;0.50;0.50;;;;;;;2.93;72.10;97870.34;6367193;22;20018;-76
2021/11/21 09:02:38;;;;;;;0.60;0.60;;;;;;;2.93;71.32;97862.63;6395616;22;20346;-78
2021/11/21 09:05:07;;;;;;;0.65;0.65;;;;;;;2.89;71.52;97864.53;6342253;22;20013;-79
2021/11/21 09:07:36;;;;;;;0.45;0.45;;;;;;;2.95;70.57;97879.66;6395383;22;20018;-77
2021/11/21 09:10:07;;;;;;;0.80;0.80;;;;;;;2.99;70.01;97881.16;6339965;22;20025;-77
2021/11/21 09:12:33;;;;;;;0.60;0.60;;;;;;;2.93;70.81;97886.66;6367032;22;20022;-80
2021/11/21 09:14:59;;;;;;;0.50;0.50;;;;;;;2.98;69.22;97900.09;6366811;22;20018;-79
2021/11/21 09:17:29;;;;;;;0.50;0.50;;;;;;;2.97;69.59;97887.31;6395969;22;20529;-80
2021/11/21 09:19:58;;;;;;;2.15;2.05;;;;;;;2.95;69.51;97902.00;6367845;22;20014;-80
2021/11/21 09:22:24;;;;;;;0.52;0.52;;;;;;;2.96;68.99;97888.22;6394380;22;20041;-79
2021/11/21 09:24:50;;;;;;;0.50;0.50;;;;;;;3.02;69.51;97898.19;6340875;22;20097;-77
2021/11/21 09:27:29;;;;;;;15.95;1.42;;;;;;;3.02;68.11;97880.13;6394757;22;20476;-77
2021/11/21 09:29:55;;;;;;;0.50;0.50;;;;;;;3.05;68.35;97900.56;6392745;22;20053;-75
2021/11/21 09:32:21;;;;;;;0.63;0.63;;;;;;;3.04;67.29;97904.91;6392953;22;20041;-75
2021/11/21 09:34:47;;;;;;;0.50;0.50;;;;;;;3.01;67.32;97887.03;6393921;22;20461;-75
2021/11/21 09:37:13;;;;;;;0.77;0.77;;;;;;;3.04;67.03;97897.16;6339698;22;20369;-76
2021/11/21 09:39:57;;;;;;;0.77;0.77;;;;;;;3.12;65.52;97895.00;6364317;22;20017;-76
2021/11/21 09:42:26;;;;;;;0.60;0.60;;;;;;;3.15;66.48;97899.97;6365399;22;20021;-74
2021/11/21 09:44:52;;;;;;;0.50;0.50;;;;;;;3.14;67.02;97885.44;6363497;22;20476;-74
2021/11/21 09:47:18;;;;;;;0.55;0.55;;;;;;;3.19;65.72;97895.50;6391339;22;20017;-74
2021/11/21 09:49:44;;;;;;;0.50;0.50;;;;;;;3.09;66.32;97887.44;6392410;22;20021;-75
2021/11/21 09:52:16;;;;;;;0.63;0.63;;;;;;;3.14;66.33;97898.31;6364049;22;20393;-75
2021/11/21 09:54:42;;;;;;;0.60;0.60;;;;;;;3.17;65.83;97893.91;6366022;22;20017;-75
2021/11/21 09:57:08;;;;;;;0.50;0.50;;;;;;;3.18;65.40;97896.41;6391575;22;20112;-76
2021/11/21 09:59:56;;;;;;;0.50;0.50;;;;;;;3.19;65.76;97904.97;6392947;22;20017;-75
2021/11/21 10:02:31;;;;;;;0.65;0.65;;;;;;;3.21;66.95;97908.31;6391574;22;20097;-75
2021/11/21 10:04:58;;;;;;;0.52;0.52;;;;;;;3.13;65.72;97901.81;6364236;22;20018;-76
2021/11/21 10:07:29;;;;;;;0.50;0.50;;;;;;;3.08;66.74;97893.50;6365596;22;20594;-76
2021/11/21 10:09:57;;;;;;;0.65;0.65;;;;;;;3.20;65.03;97897.16;6364131;22;20561;-76
2021/11/21 10:12:23;;;;;;;0.60;0.60;;;;;;;3.24;64.60;97910.72;6364274;22;20041;-76
2021/11/21 10:14:57;;;;;;;0.73;0.73;;;;;;;3.18;65.00;97917.00;6392946;22;20014;-76
2021/11/21 10:17:25;;;;;;;0.60;0.60;;;;;;;3.13;64.90;97904.41;6396709;22;20021;-77
2021/11/21 10:20:20;;;;;;;0.52;0.52;;;;;;;3.17;65.43;97916.19;6367800;22;20030;-74
2021/11/21 10:23:06;;;;;;;0.40;0.40;;;;;;;3.10;65.46;97909.72;6351434;22;20082;-75
2021/11/21 10:25:32;;;;;;;1.25;1.15;;;;;;;3.11;65.64;97932.00;6342854;22;20354;-75
2021/11/21 10:28:12;;;;;;;0.50;0.50;;;;;;;3.09;65.21;97941.56;6340746;22;20036;-77
2021/11/21 10:31:13;;;;;;;0.77;0.77;;;;;;;3.10;65.39;97932.09;6368859;22;20066;-77
2021/11/21 10:33:51;;;;;;;0.75;0.75;;;;;;;3.07;65.73;97935.69;6395694;22;20418;-75
2021/11/21 10:36:30;;;;;;;0.50;0.50;;;;;;;3.04;65.26;97940.16;6395718;22;20014;-77
2021/11/21 10:39:20;;;;;;;0.77;0.70;;;;;;;3.07;65.44;97935.69;6341584;22;20026;-75
2021/11/21 10:41:50;;;;;;;0.60;0.60;;;;;;;2.98;67.17;97923.28;6367462;22;20020;-75
2021/11/21 10:44:20;;;;;;;0.75;0.75;;;;;;;2.97;66.24;97934.53;6395292;22;20541;-75
2021/11/21 10:46:52;;;;;;;0.50;0.50;;;;;;;2.95;64.91;97928.59;6396609;22;20050;-76
2021/11/21 10:49:24;;;;;;;0.50;0.50;;;;;;;2.96;64.26;97919.97;6398416;22;20018;-75
2021/11/21 10:51:57;;;;;;;0.50;0.50;;;;;;;2.91;63.52;97940.00;6318162;22;20017;-75
2021/11/21 10:54:25;;;;;;;3.60;2.70;;;;;;;2.95;64.02;97938.06;6368784;22;20018;-75
2021/11/21 10:56:53;;;;;;;0.90;0.90;;;;;;;2.91;63.20;97924.53;6395648;22;20014;-75
2021/11/21 10:59:48;;;;;;;0.57;0.57;;;;;;;2.93;63.88;97938.19;6367567;22;20086;-76
2021/11/21 11:02:24;;;;;;;0.70;0.70;;;;;;;2.87;65.87;97938.53;6395348;22;20022;-76
2021/11/21 11:05:00;;;;;;;0.50;0.50;;;;;;;2.91;65.24;97937.41;6393873;22;20048;-76
2021/11/21 11:07:29;;;;;;;0.40;0.40;;;;;;;2.94;65.38;97942.44;6368828;22;20021;-75
2021/11/21 11:09:56;;;;;;;0.90;0.70;;;;;;;2.88;64.06;97923.91;6398236;22;20018;-76
2021/11/21 11:12:23;;;;;;;0.60;0.60;;;;;;;2.90;64.44;97946.06;6341467;22;20014;-77
2021/11/21 11:14:49;;;;;;;0.75;0.75;;;;;;;2.86;64.81;97936.84;6395404;22;20013;-77
2021/11/21 11:17:16;;;;;;;0.60;0.60;;;;;;;2.85;64.48;97926.59;6368409;22;20353;-78
2021/11/21 11:19:42;;;;;;;0.50;0.50;;;;;;;2.90;63.69;97933.19;6394944;22;20021;-77
2021/11/21 11:22:08;;;;;;;0.60;0.60;;;;;;;2.90;63.68;97927.22;6367159;22;20049;-77
2021/11/21 11:24:40;;;;;;;0.80;0.80;;;;;;;2.89;63.89;97928.13;6369267;22;20075;-76
2021/11/21 11:27:32;;;;;;;0.60;0.60;;;;;;;2.86;64.89;97934.28;6372907;22;20014;-77
2021/11/21 11:29:58;;;;;;;;;;;;;;;2.91;64.66;97932.25;6344445;22;20021;-77
2021/11/21 11:32:31;;;;;;;0.60;0.60;;;;;;;2.91;66.47;97936.59;6367290;22;20333;-75
2021/11/21 11:34:59;;;;;;;0.60;0.60;;;;;;;2.91;65.54;97932.25;6395309;22;20014;-77
2021/11/21 11:38:09;;;;;;;0.82;0.82;;;;;;;2.93;66.04;97933.03;6370513;22;20071;-77
2021/11/21 11:41:48;;;;;;;0.50;0.50;;;;;;;2.92;66.46;97926.19;6396896;22;20505;-77
2021/11/21 11:44:42;;;;;;;0.60;0.60;;;;;;;2.79;66.20;97911.50;6368698;22;20022;-76
2021/11/21 11:47:23;;;;;;;0.50;0.50;;;;;;;2.81;66.17;97920.81;6315817;22;20057;-78
2021/11/21 11:49:49;;;;;;;0.68;0.68;;;;;;;2.90;65.29;97928.03;6267222;22;20021;-78
2021/11/21 11:52:52;;;;;;;0.60;0.60;;;;;;;2.97;65.16;97929.38;6297208;22;20025;-79
2021/11/21 11:55:19;;;;;;;0.57;0.57;;;;;;;2.94;65.87;97913.25;6344647;22;20026;-79
2021/11/21 11:57:45;;;;;;;0.70;0.70;;;;;;;2.96;65.79;97927.69;6396047;22;20041;-79
2021/11/21 12:00:28;;;;;;;0.70;0.68;;;;;;;2.97;66.15;97937.09;6341971;22;20014;-79
2021/11/21 12:02:56;;;;;;;0.70;0.70;;;;;;;2.93;66.78;97924.47;6397405;22;20078;-78
2021/11/21 12:05:32;;;;;;;0.50;0.50;;;;;;;3.00;66.47;97938.66;6396510;22;20052;-79
2021/11/21 12:08:16;;;;;;;1.02;1.02;;;;;;;2.99;65.87;97924.94;6365779;22;20387;-78
2021/11/21 12:10:52;;;;;;;1.00;1.00;;;;;;;3.03;66.07;97931.59;6367309;22;20024;-78
2021/11/21 12:13:45;;;;;;;0.60;0.60;;;;;;;3.06;66.10;97939.16;6395575;22;20357;-77
2021/11/21 12:16:15;;;;;;;0.57;0.57;;;;;;;3.05;66.39;97928.94;6361470;22;20052;-78
2021/11/21 12:18:57;;;;;;;1.25;1.25;;;;;;;3.08;66.05;97939.06;6367449;22;20014;-77
2021/11/21 12:21:44;;;;;;;0.70;0.70;;;;;;;3.03;66.98;97933.34;6341235;22;20018;-78
2021/11/21 12:24:17;;;;;;;0.68;0.68;;;;;;;3.00;65.85;97929.19;6315568;22;20070;-77
2021/11/21 12:26:43;;;;;;;0.60;0.60;;;;;;;3.00;65.85;97934.34;6394476;22;20148;-75
2021/11/21 12:29:18;;;;;;;0.60;0.60;;;;;;;3.03;65.87;97939.34;6340571;22;20105;-77
2021/11/21 12:31:47;;;;;;;0.50;0.50;;;;;;;3.02;66.31;97937.66;6393434;22;20018;-77
2021/11/21 12:34:26;;;;;;;0.90;0.90;;;;;;;3.01;66.21;97935.19;6314344;22;20033;-77